Time;durP1;ratioP1;P1;durP2;ratioP2;P2;SDS_P1;SDS_P2;PMS_P1;PMS_P2;Temp;Humidity;BMP_temperature;BMP_pressure;BME280_temperature;BME280_humidity;BME280_pressure;Samples;Min_cycle;Max_cycle;Signal;HPM_P1;HPM_P2
2022/09/06 00:01:42;;;;;;;12.85;3.83;;;20.80;94.00;;;;;;5012362;28;20045;-67
2022/09/06 00:04:08;;;;;;;6.95;3.95;;;20.70;93.90;;;;;;5042497;27;20050;-67
2022/09/06 00:06:34;;;;;;;6.85;3.80;;;20.70;94.30;;;;;;5034506;28;20191;-68
2022/09/06 00:09:00;;;;;;;5.97;4.03;;;20.70;94.00;;;;;;5041744;27;20045;-69
2022/09/06 00:11:26;;;;;;;7.25;3.72;;;20.70;94.20;;;;;;5042275;27;20045;-68
2022/09/06 00:13:51;;;;;;;5.53;3.70;;;20.60;94.20;;;;;;5018630;28;20125;-68
2022/09/06 00:16:22;;;;;;;6.35;4.32;;;20.60;94.20;;;;;;5024663;28;20174;-68
2022/09/06 00:18:51;;;;;;;6.70;3.88;;;20.50;94.40;;;;;;5010103;28;20064;-67
2022/09/06 00:21:18;;;;;;;6.32;3.78;;;20.50;94.40;;;;;;5031276;28;20049;-68
2022/09/06 00:23:44;;;;;;;8.15;3.85;;;20.50;94.40;;;;;;5009600;28;20138;-69
2022/09/06 00:26:10;;;;;;;7.32;4.00;;;20.50;94.40;;;;;;5014538;28;20077;-67
2022/09/06 00:28:37;;;;;;;5.75;3.85;;;20.40;94.40;;;;;;5003521;28;20452;-68
2022/09/06 00:31:18;;;;;;;7.63;4.07;;;20.40;94.30;;;;;;5042546;27;20062;-67
2022/09/06 00:33:44;;;;;;;8.70;3.90;;;20.40;94.50;;;;;;5009489;28;20049;-68
2022/09/06 00:36:11;;;;;;;7.50;3.63;;;20.40;94.60;;;;;;5009012;28;20050;-69
2022/09/06 00:38:38;;;;;;;8.60;3.83;;;20.30;94.50;;;;;;5021660;28;20103;-68
2022/09/06 00:41:05;;;;;;;5.63;3.78;;;20.30;94.60;;;;;;5010940;28;20053;-68
2022/09/06 00:43:31;;;;;;;8.38;3.95;;;20.30;94.70;;;;;;5028243;28;20062;-68
2022/09/06 00:45:58;;;;;;;5.53;3.80;;;20.20;94.70;;;;;;5025342;28;20046;-68
2022/09/06 00:48:24;;;;;;;5.63;3.75;;;20.20;94.70;;;;;;5037352;27;20116;-67
2022/09/06 00:50:55;;;;;;;5.78;4.07;;;20.20;94.60;;;;;;5009156;28;20037;-67
2022/09/06 00:53:21;;;;;;;6.43;3.70;;;20.10;94.80;;;;;;5009759;28;20054;-68
2022/09/06 00:55:47;;;;;;;9.05;4.25;;;20.10;94.70;;;;;;5015609;28;20046;-68
2022/09/06 00:58:13;;;;;;;7.47;3.90;;;20.10;94.90;;;;;;5015312;28;20499;-67
2022/09/06 01:00:39;;;;;;;7.05;3.92;;;20.10;94.80;;;;;;5010485;28;20088;-67
2022/09/06 01:03:06;;;;;;;7.70;3.63;;;20.00;94.80;;;;;;5023213;28;20080;-67
2022/09/06 01:05:52;;;;;;;7.60;4.13;;;20.00;94.80;;;;;;5009326;28;20050;-67
2022/09/06 01:08:38;;;;;;;8.13;3.80;;;20.00;95.00;;;;;;5010003;28;20049;-68
2022/09/06 01:11:41;;;;;;;8.30;4.30;;;20.00;95.00;;;;;;5009983;28;20060;-68
2022/09/06 01:14:16;;;;;;;6.75;4.05;;;20.00;94.90;;;;;;5046202;27;20045;-68
2022/09/06 01:16:53;;;;;;;7.82;3.97;;;19.90;94.90;;;;;;5013196;28;20053;-67
2022/09/06 01:19:48;;;;;;;6.38;3.72;;;19.90;95.00;;;;;;5011179;28;20030;-68
2022/09/06 01:22:44;;;;;;;8.73;4.50;;;19.90;95.00;;;;;;5009075;28;20161;-67
2022/09/06 01:25:33;;;;;;;6.35;4.50;;;19.90;95.20;;;;;;5015486;28;20596;-67
2022/09/06 01:28:11;;;;;;;5.25;4.30;;;19.90;95.10;;;;;;5014907;28;20094;-67
2022/09/06 01:30:42;;;;;;;5.93;3.90;;;20.00;95.10;;;;;;5010852;28;20142;-68
2022/09/06 01:33:08;;;;;;;8.40;4.28;;;19.90;95.00;;;;;;5040283;27;20453;-68
2022/09/06 01:35:46;;;;;;;5.03;4.00;;;19.90;95.10;;;;;;5021676;28;20125;-68
2022/09/06 01:38:14;;;;;;;9.48;4.20;;;19.90;95.10;;;;;;5008503;28;20057;-68
2022/09/06 01:40:40;;;;;;;6.32;4.22;;;19.80;95.10;;;;;;5025239;27;20509;-67
2022/09/06 01:43:11;;;;;;;7.95;4.18;;;19.80;95.20;;;;;;5013813;28;20128;-67
2022/09/06 01:46:02;;;;;;;9.50;4.18;;;19.80;95.10;;;;;;5058762;28;20083;-67
2022/09/06 01:48:46;;;;;;;7.88;4.53;;;19.80;95.10;;;;;;5028781;28;20041;-67
2022/09/06 01:51:42;;;;;;;6.30;4.43;;;19.80;95.20;;;;;;5020896;28;20061;-67
2022/09/06 01:54:23;;;;;;;6.47;4.20;;;19.80;95.10;;;;;;5027061;28;20139;-67
2022/09/06 01:57:06;;;;;;;5.85;4.07;;;19.70;95.20;;;;;;5041669;28;20052;-67
2022/09/06 01:59:35;;;;;;;6.22;3.90;;;19.70;95.10;;;;;;5032713;28;20042;-66
2022/09/06 02:02:30;;;;;;;7.07;4.03;;;19.70;95.20;;;;;;5014936;28;20045;-68
2022/09/06 02:05:03;;;;;;;9.48;4.35;;;19.70;95.20;;;;;;5027879;28;20110;-67
2022/09/06 02:07:32;;;;;;;5.93;4.05;;;19.70;95.40;;;;;;5039663;28;20054;-67
2022/09/06 02:10:21;;;;;;;5.68;4.30;;;19.60;95.20;;;;;;5022973;28;20384;-68
2022/09/06 02:12:50;;;;;;;8.65;4.22;;;19.60;95.40;;;;;;5008005;28;20042;-66
2022/09/06 02:15:24;;;;;;;8.75;4.47;;;19.60;95.50;;;;;;5008716;28;20054;-67
2022/09/06 02:17:59;;;;;;;7.65;4.43;;;19.60;95.40;;;;;;5012918;28;20037;-67
2022/09/06 02:20:30;;;;;;;6.75;4.40;;;19.60;95.40;;;;;;5010362;28;20083;-66
2022/09/06 02:23:02;;;;;;;8.02;4.03;;;19.60;95.50;;;;;;5046942;27;20554;-67
2022/09/06 02:25:37;;;;;;;5.32;4.15;;;19.50;95.50;;;;;;5008032;28;20368;-61
2022/09/06 02:28:04;;;;;;;7.65;4.47;;;19.50;95.50;;;;;;5008739;28;20119;-61
2022/09/06 02:30:33;;;;;;;8.25;4.10;;;19.50;95.60;;;;;;5009118;28;20046;-62
2022/09/06 02:33:05;;;;;;;8.50;4.47;;;19.50;95.60;;;;;;5007537;28;20096;-62
2022/09/06 02:35:31;;;;;;;9.15;4.47;;;19.50;95.60;;;;;;5009193;28;20510;-62
2022/09/06 02:37:57;;;;;;;7.40;4.43;;;19.50;95.70;;;;;;5008321;28;20045;-62
2022/09/06 02:40:23;;;;;;;7.75;4.40;;;19.50;95.70;;;;;;5007917;28;20050;-63
2022/09/06 02:42:49;;;;;;;8.27;4.65;;;19.50;95.60;;;;;;5007574;28;20129;-62
2022/09/06 02:45:14;;;;;;;6.80;4.65;;;19.50;95.60;;;;;;5007721;28;20136;-63
2022/09/06 02:47:40;;;;;;;7.45;4.30;;;19.50;95.60;;;;;;5008993;28;20038;-62
2022/09/06 02:50:07;;;;;;;6.75;4.40;;;19.40;96.00;;;;;;5010744;28;20049;-62
2022/09/06 02:52:33;;;;;;;7.22;4.57;;;19.40;95.90;;;;;;5012006;28;20050;-64
2022/09/06 02:54:58;;;;;;;5.38;4.40;;;19.40;95.80;;;;;;5012181;28;20118;-62
2022/09/06 02:57:24;;;;;;;7.85;4.68;;;19.30;95.90;;;;;;4994899;28;20132;-62
2022/09/06 02:59:50;;;;;;;6.10;4.63;;;19.30;95.90;;;;;;5012381;28;20042;-61
2022/09/06 03:02:16;;;;;;;6.53;4.25;;;19.40;95.90;;;;;;5012060;28;20054;-62
2022/09/06 03:04:42;;;;;;;7.43;4.75;;;19.30;95.90;;;;;;5011044;28;20049;-62
2022/09/06 03:07:08;;;;;;;7.55;4.95;;;19.30;96.00;;;;;;5010581;28;20102;-62
2022/09/06 03:09:33;;;;;;;7.25;4.70;;;19.30;96.10;;;;;;5044343;28;20065;-62
2022/09/06 03:11:59;;;;;;;7.05;4.72;;;19.20;96.10;;;;;;5044077;28;20054;-61
2022/09/06 03:14:25;;;;;;;5.95;4.32;;;19.20;96.10;;;;;;5012340;28;20042;-61
2022/09/06 03:16:51;;;;;;;7.15;4.78;;;19.10;96.30;;;;;;5012080;28;20417;-62
2022/09/06 03:19:16;;;;;;;5.25;4.57;;;19.10;96.20;;;;;;5027331;28;20053;-62
2022/09/06 03:21:42;;;;;;;8.27;5.18;;;19.10;96.40;;;;;;5043967;28;20061;-61
2022/09/06 03:24:08;;;;;;;6.35;4.57;;;19.10;96.40;;;;;;5011473;28;20053;-62
2022/09/06 03:26:33;;;;;;;6.97;4.78;;;19.00;96.50;;;;;;5011792;28;20136;-61
2022/09/06 03:28:59;;;;;;;6.80;4.78;;;19.00;96.60;;;;;;5011785;28;20065;-62
2022/09/06 03:31:25;;;;;;;7.43;5.07;;;19.00;96.50;;;;;;5043078;28;20062;-62
2022/09/06 03:33:50;;;;;;;7.30;5.10;;;19.00;96.50;;;;;;5011784;28;20053;-62
2022/09/06 03:36:16;;;;;;;6.88;5.03;;;18.90;96.60;;;;;;5011528;28;20046;-63
2022/09/06 03:38:42;;;;;;;8.40;5.15;;;18.90;96.60;;;;;;5043280;28;20487;-62
2022/09/06 03:41:07;;;;;;;5.65;5.00;;;18.90;96.80;;;;;;5011382;28;20038;-61
2022/09/06 03:43:33;;;;;;;6.97;4.93;;;18.80;96.80;;;;;;5010550;28;20052;-62
2022/09/06 03:45:59;;;;;;;6.85;5.22;;;18.80;96.80;;;;;;5010566;28;20061;-63
2022/09/06 03:48:26;;;;;;;11.48;5.57;;;18.80;96.90;;;;;;5011248;28;20090;-61
2022/09/06 03:50:54;;;;;;;5.90;4.70;;;18.80;97.10;;;;;;5011842;28;20508;-63
2022/09/06 03:53:21;;;;;;;8.52;5.45;;;18.80;96.80;;;;;;5010271;28;20050;-62
2022/09/06 03:55:50;;;;;;;6.95;5.25;;;18.80;97.20;;;;;;5011360;28;20130;-62
2022/09/06 03:58:18;;;;;;;8.32;5.60;;;18.70;97.00;;;;;;5011048;28;20049;-62
2022/09/06 04:00:44;;;;;;;8.10;6.18;;;18.70;97.10;;;;;;5010007;28;20061;-62
2022/09/06 04:03:11;;;;;;;8.88;5.40;;;18.80;97.20;;;;;;5011109;28;20103;-62
2022/09/06 04:05:37;;;;;;;8.02;5.57;;;18.70;97.20;;;;;;5011428;28;20045;-62
2022/09/06 04:08:04;;;;;;;8.15;5.68;;;18.70;97.30;;;;;;5026547;28;20048;-62
2022/09/06 04:10:31;;;;;;;8.45;5.47;;;18.70;97.40;;;;;;5011208;28;20088;-62
2022/09/06 04:12:56;;;;;;;9.05;5.97;;;18.70;97.30;;;;;;5011176;28;20050;-62
2022/09/06 04:15:22;;;;;;;7.85;6.32;;;18.70;97.60;;;;;;5042852;28;20388;-62
2022/09/06 04:17:48;;;;;;;7.75;5.75;;;18.60;97.70;;;;;;5010287;28;20156;-61
2022/09/06 04:20:14;;;;;;;8.98;6.00;;;18.60;97.80;;;;;;5011352;28;20089;-61
2022/09/06 04:22:40;;;;;;;8.85;5.75;;;18.60;97.70;;;;;;5011268;28;20128;-62
2022/09/06 04:25:06;;;;;;;7.53;5.43;;;18.60;98.00;;;;;;5009950;28;20057;-61
2022/09/06 04:27:33;;;;;;;9.93;5.75;;;18.60;97.80;;;;;;5009217;28;20546;-62
2022/09/06 04:29:58;;;;;;;7.60;6.13;;;18.60;97.90;;;;;;5010974;28;20050;-62
2022/09/06 04:32:24;;;;;;;8.95;5.70;;;18.60;98.00;;;;;;5042207;28;20065;-62
2022/09/06 04:34:50;;;;;;;7.65;6.10;;;18.60;98.00;;;;;;5010797;28;20046;-62
2022/09/06 04:37:18;;;;;;;7.35;5.88;;;18.50;98.10;;;;;;5042257;28;20111;-62
2022/09/06 04:39:45;;;;;;;7.95;5.60;;;18.50;98.40;;;;;;5010863;28;20050;-63
2022/09/06 04:42:11;;;;;;;8.32;6.20;;;18.50;98.40;;;;;;5042563;28;20045;-61
2022/09/06 04:44:37;;;;;;;8.15;6.00;;;18.50;98.30;;;;;;5042542;28;20046;-61
2022/09/06 04:47:05;;;;;;;8.23;5.85;;;18.50;98.40;;;;;;5011077;28;20496;-62
2022/09/06 04:49:31;;;;;;;8.60;6.10;;;18.50;98.40;;;;;;4992565;28;20407;-63
2022/09/06 04:51:57;;;;;;;8.73;6.47;;;18.50;98.70;;;;;;5010699;28;20042;-63
2022/09/06 04:54:22;;;;;;;7.70;6.18;;;18.50;98.70;;;;;;5009289;28;20095;-62
2022/09/06 04:56:48;;;;;;;7.25;6.18;;;18.50;99.00;;;;;;5009688;28;20474;-62
2022/09/06 04:59:14;;;;;;;7.78;6.78;;;18.50;98.70;;;;;;5010739;28;20042;-62
2022/09/06 05:01:40;;;;;;;10.75;6.70;;;18.50;98.80;;;;;;5010899;28;20137;-63
2022/09/06 05:04:05;;;;;;;7.55;6.75;;;18.50;98.80;;;;;;5009562;28;20053;-61
2022/09/06 05:06:31;;;;;;;7.65;6.15;;;18.50;98.90;;;;;;5010235;28;20042;-62
2022/09/06 05:08:57;;;;;;;10.13;6.80;;;18.50;99.00;;;;;;5010370;28;20046;-62
2022/09/06 05:11:22;;;;;;;9.60;7.13;;;18.50;99.40;;;;;;5041288;28;20042;-62
2022/09/06 05:13:49;;;;;;;8.23;7.20;;;18.50;99.40;;;;;;5009981;28;20038;-62
2022/09/06 05:16:15;;;;;;;10.23;7.00;;;18.50;99.30;;;;;;5010390;28;20076;-62
2022/09/06 05:18:41;;;;;;;8.15;7.20;;;18.50;99.20;;;;;;5008940;28;20483;-63
2022/09/06 05:21:07;;;;;;;10.88;6.82;;;18.50;99.20;;;;;;5009953;28;20045;-62
2022/09/06 05:23:33;;;;;;;14.40;7.88;;;18.50;99.30;;;;;;5041641;28;20053;-62
2022/09/06 05:25:58;;;;;;;7.88;6.97;;;18.50;99.50;;;;;;5010105;28;20046;-63
2022/09/06 05:28:24;;;;;;;12.35;7.57;;;18.40;99.90;;;;;;5008029;28;20057;-62
2022/09/06 05:30:50;;;;;;;9.55;7.85;;;18.40;99.90;;;;;;5008819;28;20046;-62
2022/09/06 05:33:21;;;;;;;9.23;7.13;;;18.40;99.90;;;;;;5008540;28;20129;-63
2022/09/06 05:35:47;;;;;;;9.60;7.43;;;18.40;99.90;;;;;;5041816;28;20085;-60
2022/09/06 05:38:13;;;;;;;10.52;7.82;;;18.40;99.90;;;;;;5009890;28;20050;-63
2022/09/06 05:40:39;;;;;;;10.15;7.22;;;18.40;99.90;;;;;;5041437;28;20471;-63
2022/09/06 05:43:05;;;;;;;9.30;7.30;;;18.40;99.90;;;;;;5009728;28;20052;-61
2022/09/06 05:45:30;;;;;;;8.93;7.82;;;18.40;99.90;;;;;;5041298;28;20045;-61
2022/09/06 05:47:56;;;;;;;9.00;7.53;;;18.40;99.90;;;;;;5008560;28;20138;-62
2022/09/06 05:50:22;;;;;;;12.25;7.80;;;18.50;99.90;;;;;;5009405;28;20475;-63
2022/09/06 05:52:52;;;;;;;9.45;8.10;;;18.50;99.90;;;;;;5008283;28;20073;-63
2022/09/06 05:55:18;;;;;;;10.90;7.63;;;18.50;99.90;;;;;;5009469;28;20050;-63
2022/09/06 05:57:44;;;;;;;10.70;8.02;;;18.50;99.90;;;;;;5009448;28;20407;-61
2022/09/06 06:00:11;;;;;;;11.05;7.95;;;18.40;99.90;;;;;;5024705;28;20110;-62
2022/09/06 06:02:38;;;;;;;9.43;8.30;;;18.50;99.90;;;;;;5040896;28;20049;-63
2022/09/06 06:05:05;;;;;;;11.00;9.10;;;18.50;99.90;;;;;;5008279;28;20061;-63
2022/09/06 06:07:30;;;;;;;9.63;8.40;;;18.40;99.90;;;;;;5009119;28;20048;-61
2022/09/06 06:09:56;;;;;;;10.10;8.35;;;18.50;99.90;;;;;;5009519;28;20045;-62
2022/09/06 06:12:22;;;;;;;8.63;7.72;;;18.50;99.90;;;;;;5040968;28;20081;-62
2022/09/06 06:14:47;;;;;;;8.68;7.78;;;18.50;99.90;;;;;;5008660;28;20041;-62
2022/09/06 06:17:13;;;;;;;11.88;8.35;;;18.50;99.90;;;;;;5008207;28;20053;-61
2022/09/06 06:19:39;;;;;;;17.33;9.02;;;18.60;99.90;;;;;;5008636;28;20487;-63
2022/09/06 06:22:04;;;;;;;13.10;9.20;;;18.60;99.90;;;;;;5009193;28;20054;-63
2022/09/06 06:24:30;;;;;;;9.68;8.27;;;18.60;99.90;;;;;;5008507;28;20103;-62
2022/09/06 06:26:56;;;;;;;12.15;8.93;;;18.60;99.90;;;;;;5007894;28;20136;-62
2022/09/06 06:29:24;;;;;;;13.45;9.25;;;18.60;99.90;;;;;;5040542;28;20093;-61
2022/09/06 06:31:49;;;;;;;9.13;8.23;;;18.60;99.90;;;;;;5008854;28;20479;-61
2022/09/06 06:34:19;;;;;;;10.90;9.05;;;18.60;99.90;;;;;;5009113;28;20104;-62
2022/09/06 06:36:45;;;;;;;10.73;8.85;;;18.70;99.90;;;;;;5008872;28;20089;-61
2022/09/06 06:39:10;;;;;;;10.93;8.75;;;18.70;99.90;;;;;;4991867;28;20077;-62
2022/09/06 06:41:36;;;;;;;10.30;8.60;;;18.70;99.90;;;;;;5008816;28;20173;-62
2022/09/06 06:44:04;;;;;;;10.48;8.63;;;18.70;99.90;;;;;;5024363;28;20440;-62
2022/09/06 06:46:32;;;;;;;12.52;9.00;;;18.80;99.90;;;;;;5007897;28;20089;-62
2022/09/06 06:48:57;;;;;;;9.93;8.93;;;18.70;99.90;;;;;;5008969;28;20387;-61
2022/09/06 06:51:27;;;;;;;10.93;9.05;;;18.70;99.90;;;;;;5040821;28;20041;-63
2022/09/06 06:53:53;;;;;;;11.80;9.73;;;18.80;99.90;;;;;;5008374;28;20081;-61
2022/09/06 06:56:20;;;;;;;12.35;8.40;;;18.80;99.90;;;;;;5008896;28;20042;-63
2022/09/06 06:58:48;;;;;;;15.05;9.32;;;18.80;99.90;;;;;;5008654;28;20433;-61
2022/09/06 07:01:19;;;;;;;13.20;9.27;;;18.80;99.90;;;;;;4991597;28;20082;-61
2022/09/06 07:03:48;;;;;;;10.32;9.27;;;18.80;99.90;;;;;;5008457;28;20046;-61
2022/09/06 07:06:15;;;;;;;11.95;9.10;;;18.80;99.90;;;;;;5008812;28;20303;-61
2022/09/06 07:08:41;;;;;;;11.35;10.15;;;18.90;99.90;;;;;;5008497;28;20046;-62
2022/09/06 07:11:09;;;;;;;12.20;9.15;;;18.90;99.90;;;;;;5008817;28;20054;-61
2022/09/06 07:13:35;;;;;;;11.50;9.20;;;19.00;99.90;;;;;;5007226;28;20046;-60
2022/09/06 07:16:08;;;;;;;11.27;9.93;;;19.00;99.90;;;;;;5008733;28;20042;-61
2022/09/06 07:18:35;;;;;;;11.73;9.77;;;19.10;99.90;;;;;;5008273;28;20442;-62
2022/09/06 07:21:00;;;;;;;13.60;9.63;;;19.20;99.90;;;;;;5008629;28;20068;-60
2022/09/06 07:23:26;;;;;;;13.32;9.75;;;19.20;99.90;;;;;;5008635;28;20046;-62
2022/09/06 07:25:52;;;;;;;12.55;9.35;;;19.20;99.90;;;;;;5007147;28;20124;-61
2022/09/06 07:28:18;;;;;;;14.70;9.77;;;19.30;99.90;;;;;;5006961;28;20176;-61
2022/09/06 07:30:43;;;;;;;12.70;10.05;;;19.40;99.90;;;;;;5007442;28;20061;-61
2022/09/06 07:33:09;;;;;;;13.57;10.07;;;19.50;99.90;;;;;;5008609;28;20053;-61
2022/09/06 07:35:35;;;;;;;12.18;10.15;;;19.60;99.90;;;;;;5008429;28;20383;-61
2022/09/06 07:38:01;;;;;;;14.45;9.40;;;19.80;99.90;;;;;;5010559;28;20156;-61
2022/09/06 07:40:29;;;;;;;15.27;10.43;;;19.80;99.90;;;;;;5010590;28;20429;-61
2022/09/06 07:42:56;;;;;;;12.93;10.15;;;19.90;99.90;;;;;;5042872;28;20046;-61
2022/09/06 07:45:23;;;;;;;13.02;9.77;;;20.00;99.90;;;;;;5010603;28;20052;-60
2022/09/06 07:47:58;;;;;;;12.95;10.00;;;20.00;99.90;;;;;;5011246;28;20042;-59
2022/09/06 07:50:25;;;;;;;14.32;10.13;;;20.30;99.90;;;;;;5010341;28;20054;-60
2022/09/06 07:52:50;;;;;;;10.68;9.68;;;21.10;99.90;;;;;;5011419;28;20477;-60
2022/09/06 07:55:16;;;;;;;10.65;9.30;;;21.70;99.70;;;;;;5011809;28;20129;-61
2022/09/06 07:57:42;;;;;;;10.10;9.07;;;22.10;99.30;;;;;;5010203;28;20053;-60
2022/09/06 08:00:10;;;;;;;13.43;9.35;;;22.00;98.60;;;;;;5011455;28;20487;-61
2022/09/06 08:02:35;;;;;;;11.13;9.68;;;22.20;99.40;;;;;;5042884;28;20042;-59
2022/09/06 08:05:02;;;;;;;14.52;9.43;;;23.10;97.80;;;;;;5011259;28;20042;-60
2022/09/06 08:07:27;;;;;;;10.52;8.05;;;24.20;96.80;;;;;;5042908;28;20116;-60
2022/09/06 08:09:53;;;;;;;9.68;8.57;;;25.30;96.20;;;;;;5009860;28;20586;-61
2022/09/06 08:12:19;;;;;;;10.85;8.32;;;26.20;94.50;;;;;;5010188;28;20049;-61
2022/09/06 08:14:44;;;;;;;13.55;8.73;;;26.90;94.80;;;;;;5026341;28;20077;-60
2022/09/06 08:17:10;;;;;;;8.70;7.80;;;27.50;93.20;;;;;;5043084;28;20046;-61
2022/09/06 08:19:36;;;;;;;14.38;7.95;;;28.30;92.80;;;;;;5043093;28;20495;-61
2022/09/06 08:22:02;;;;;;;8.85;7.60;;;28.60;91.80;;;;;;5042731;28;20077;-62
2022/09/06 08:24:27;;;;;;;16.08;7.45;;;28.90;91.90;;;;;;5011235;28;20098;-62
2022/09/06 08:26:53;;;;;;;8.82;7.32;;;28.70;90.70;;;;;;5026359;28;20053;-60
2022/09/06 08:29:19;;;;;;;12.02;7.57;;;28.60;90.40;;;;;;5006632;28;20529;-60
2022/09/06 08:31:45;;;;;;;13.20;7.65;;;28.50;90.20;;;;;;5006732;28;20057;-61
2022/09/06 08:34:12;;;;;;;9.13;7.43;;;28.50;90.60;;;;;;5010124;28;20130;-62
2022/09/06 08:36:39;;;;;;;9.43;7.03;;;28.70;90.20;;;;;;4993265;28;20046;-60
2022/09/06 08:39:10;;;;;;;11.23;7.65;;;29.10;88.90;;;;;;5010505;28;20107;-62
2022/09/06 08:41:56;;;;;;;8.07;6.75;;;29.70;90.20;;;;;;5039882;28;20516;-61
2022/09/06 08:44:24;;;;;;;9.32;7.13;;;29.90;88.80;;;;;;5006227;28;20092;-61
2022/09/06 08:46:53;;;;;;;9.05;6.82;;;30.10;88.60;;;;;;5007328;28;20487;-62
2022/09/06 08:49:19;;;;;;;9.85;6.80;;;30.10;87.90;;;;;;5008524;28;20391;-62
2022/09/06 08:51:48;;;;;;;8.15;6.90;;;30.40;87.50;;;;;;5010224;28;20048;-65
2022/09/06 08:54:39;;;;;;;8.38;7.28;;;30.50;87.10;;;;;;5007707;28;20153;-64
2022/09/06 08:57:08;;;;;;;12.93;7.60;;;30.60;86.10;;;;;;5009454;28;20335;-62
2022/09/06 08:59:37;;;;;;;9.60;7.38;;;30.90;86.90;;;;;;5010281;28;20053;-63
2022/09/06 09:02:17;;;;;;;9.70;7.00;;;30.70;85.30;;;;;;5004166;28;20046;-61
2022/09/06 09:04:57;;;;;;;7.68;6.03;;;30.60;86.00;;;;;;5006813;28;20387;-63
2022/09/06 09:07:38;;;;;;;8.52;7.63;;;30.60;86.10;;;;;;5005741;28;20154;-65
2022/09/06 09:10:14;;;;;;;9.07;7.32;;;30.40;86.10;;;;;;5005735;28;20057;-61
2022/09/06 09:12:45;;;;;;;8.57;6.78;;;30.50;85.90;;;;;;5020292;28;20103;-64
2022/09/06 09:15:15;;;;;;;8.23;6.57;;;30.50;85.60;;;;;;5009369;28;20065;-61
2022/09/06 09:17:41;;;;;;;11.20;7.15;;;30.70;86.60;;;;;;5009969;28;20037;-62
2022/09/06 09:20:07;;;;;;;12.80;7.47;;;30.90;86.80;;;;;;5007940;28;20049;-62
2022/09/06 09:22:35;;;;;;;7.80;6.60;;;30.60;86.00;;;;;;5009496;28;20485;-63
2022/09/06 09:25:01;;;;;;;8.02;6.60;;;30.00;86.90;;;;;;5008429;28;20046;-63
2022/09/06 09:27:28;;;;;;;41.53;12.63;;;29.60;86.50;;;;;;5009843;28;20052;-60
2022/09/06 09:29:54;;;;;;;7.57;6.25;;;29.20;87.20;;;;;;5007273;28;20066;-62
2022/09/06 09:32:34;;;;;;;8.40;6.82;;;28.80;87.40;;;;;;5009574;28;20049;-63
2022/09/06 09:35:15;;;;;;;8.80;6.65;;;28.50;87.90;;;;;;5007993;28;20083;-62
2022/09/06 09:37:40;;;;;;;10.07;6.90;;;28.40;88.10;;;;;;5009830;28;20041;-62
2022/09/06 09:40:32;;;;;;;8.52;6.88;;;28.20;88.80;;;;;;5008144;28;20069;-63
2022/09/06 09:43:14;;;;;;;13.02;7.97;;;28.10;88.40;;;;;;5008087;28;20509;-61
2022/09/06 09:45:40;;;;;;;8.38;7.32;;;27.80;89.00;;;;;;5008029;28;20052;-60
2022/09/06 09:48:23;;;;;;;10.50;8.45;;;27.80;89.20;;;;;;5024221;28;20559;-62
2022/09/06 09:50:49;;;;;;;9.95;7.90;;;27.80;89.40;;;;;;5008629;28;20046;-65
2022/09/06 09:53:19;;;;;;;10.77;8.50;;;27.60;89.40;;;;;;5007047;28;20380;-61
2022/09/06 09:55:45;;;;;;;9.70;8.15;;;27.30;90.00;;;;;;5006613;28;20499;-60
2022/09/06 09:58:38;;;;;;;10.45;7.97;;;27.10;90.20;;;;;;5008684;28;20376;-63
2022/09/06 10:01:28;;;;;;;9.48;8.57;;;26.80;90.50;;;;;;5009278;28;20441;-63
2022/09/06 10:13:37;;;;;;;12.48;9.07;;;25.90;91.20;;;;;;5102819;27;1960921;-62
2022/09/06 10:16:03;;;;;;;9.95;8.70;;;25.80;91.40;;;;;;5136124;27;20046;-63
2022/09/06 10:18:39;;;;;;;10.63;8.15;;;25.70;91.80;;;;;;5130103;27;20122;-62
2022/09/06 10:21:25;;;;;;;10.95;8.73;;;25.70;91.90;;;;;;5154560;27;20117;-65
2022/09/06 10:24:33;;;;;;;10.00;7.68;;;25.70;91.80;;;;;;5152351;27;20050;-64
2022/09/06 10:27:03;;;;;;;11.82;8.00;;;25.80;91.90;;;;;;5102311;28;20405;-64
2022/09/06 10:29:55;;;;;;;10.90;8.68;;;25.70;91.60;;;;;;5120984;27;20051;-64
2022/09/06 10:33:15;;;;;;;9.45;8.25;;;25.70;91.80;;;;;;5160161;27;20047;-63
2022/09/06 10:35:41;;;;;;;10.63;8.18;;;25.70;92.10;;;;;;5080802;28;20052;-63
2022/09/06 10:38:22;;;;;;;11.38;7.57;;;25.80;91.80;;;;;;5132727;27;20075;-64
2022/09/06 10:41:27;;;;;;;11.75;8.18;;;25.60;91.90;;;;;;5157197;27;20042;-65
2022/09/06 10:44:14;;;;;;;11.82;8.70;;;25.50;92.00;;;;;;5154531;27;20375;-63
2022/09/06 10:46:44;;;;;;;10.95;8.88;;;25.40;92.10;;;;;;5155781;27;20100;-62
2022/09/06 10:49:16;;;;;;;12.48;8.73;;;25.30;92.10;;;;;;5133050;27;20046;-63
2022/09/06 10:51:51;;;;;;;13.55;8.85;;;25.20;92.20;;;;;;5156836;27;20591;-63
2022/09/06 10:54:21;;;;;;;10.48;9.40;;;25.20;92.40;;;;;;5156869;27;20051;-62
2022/09/06 10:56:55;;;;;;;9.07;7.47;;;25.30;92.30;;;;;;5157923;27;20045;-63
2022/09/06 10:59:44;;;;;;;10.13;9.05;;;25.40;92.70;;;;;;5149740;27;20054;-63
2022/09/06 11:02:29;;;;;;;11.80;8.77;;;25.60;92.10;;;;;;5166658;27;20039;-63
2022/09/06 11:05:00;;;;;;;9.15;8.25;;;25.60;92.30;;;;;;5149758;27;20051;-61
2022/09/06 11:07:33;;;;;;;11.25;8.55;;;25.60;92.10;;;;;;5157385;27;20145;-61
2022/09/06 11:10:13;;;;;;;11.60;7.70;;;25.60;92.20;;;;;;5157559;27;20073;-62
2022/09/06 11:13:07;;;;;;;9.82;8.48;;;25.70;92.60;;;;;;5121375;27;20323;-61
2022/09/06 11:15:47;;;;;;;9.13;8.13;;;25.90;92.10;;;;;;5157918;27;20133;-62
2022/09/06 11:18:25;;;;;;;12.80;8.00;;;25.90;91.90;;;;;;5162666;27;20051;-61
2022/09/06 11:21:13;;;;;;;10.68;8.02;;;25.90;91.90;;;;;;5160376;27;20130;-62
2022/09/06 11:24:08;;;;;;;12.13;8.25;;;25.90;91.90;;;;;;5123509;27;20099;-62
2022/09/06 11:26:39;;;;;;;14.07;7.93;;;25.90;92.00;;;;;;5149620;27;20085;-62
2022/09/06 11:29:17;;;;;;;11.48;9.60;;;26.00;91.80;;;;;;5146234;27;20047;-62
2022/09/06 11:31:56;;;;;;;9.32;7.85;;;26.10;91.50;;;;;;5148512;27;20043;-61
2022/09/06 11:34:33;;;;;;;11.18;8.88;;;26.20;91.60;;;;;;5126424;27;20130;-61
2022/09/06 11:37:07;;;;;;;10.23;7.47;;;26.20;91.50;;;;;;5150747;27;20042;-60
2022/09/06 11:39:34;;;;;;;;;;;26.20;91.70;;;;;;5151042;27;20042;-60
2022/09/06 11:42:00;;;;;;;8.32;7.53;;;26.30;91.50;;;;;;5119812;27;19968;-60
2022/09/06 11:44:57;;;;;;;11.48;6.70;;;26.30;91.60;;;;;;5147890;27;20039;-61
2022/09/06 11:47:42;;;;;;;7.47;6.63;;;26.30;91.00;;;;;;5152316;27;20399;-62
2022/09/06 11:50:19;;;;;;;9.68;6.10;;;26.30;91.20;;;;;;5143814;27;20517;-65
2022/09/06 11:52:55;;;;;;;10.02;6.72;;;26.40;90.90;;;;;;5129259;27;20046;-61
2022/09/06 11:55:24;;;;;;;10.02;5.95;;;26.40;90.70;;;;;;5152280;27;20047;-60
2022/09/06 11:57:57;;;;;;;9.70;6.20;;;26.30;90.70;;;;;;5129221;27;20117;-61
2022/09/06 12:00:23;;;;;;;9.38;5.88;;;26.30;90.50;;;;;;5125237;27;20116;-61
2022/09/06 12:02:50;;;;;;;11.10;6.25;;;26.20;90.60;;;;;;5119822;27;20043;-61
2022/09/06 12:05:29;;;;;;;7.53;5.82;;;26.20;91.00;;;;;;5136572;27;20095;-62
2022/09/06 12:08:30;;;;;;;8.23;6.25;;;26.10;90.90;;;;;;5133576;27;20067;-61
2022/09/06 12:11:22;;;;;;;10.10;6.25;;;26.10;90.90;;;;;;5135732;27;20039;-63
2022/09/06 12:13:59;;;;;;;6.05;5.38;;;26.20;91.00;;;;;;5144176;27;20144;-61
2022/09/06 12:16:56;;;;;;;8.30;5.53;;;26.20;90.90;;;;;;5134587;27;20442;-61
2022/09/06 12:19:44;;;;;;;5.85;5.20;;;26.30;91.10;;;;;;5115303;27;20084;-60
2022/09/06 12:22:40;;;;;;;8.50;5.53;;;26.40;90.80;;;;;;5140903;27;20038;-64
2022/09/06 12:25:33;;;;;;;10.20;5.43;;;26.60;90.70;;;;;;5133259;27;20122;-61
2022/09/06 12:28:05;;;;;;;7.72;5.50;;;26.50;90.40;;;;;;5132938;27;20051;-60
2022/09/06 12:30:41;;;;;;;6.55;5.22;;;26.80;90.40;;;;;;5131984;27;20138;-63
2022/09/06 12:33:24;;;;;;;6.70;5.95;;;26.80;90.40;;;;;;5134465;27;20043;-62
2022/09/06 12:35:50;;;;;;;7.80;5.47;;;26.80;90.20;;;;;;5119737;27;20090;-61
2022/09/06 12:38:22;;;;;;;6.30;4.85;;;26.60;90.40;;;;;;5136681;27;20090;-61
2022/09/06 12:40:53;;;;;;;7.50;5.47;;;26.70;90.50;;;;;;5125625;27;20614;-61
2022/09/06 12:43:19;;;;;;;9.85;6.03;;;26.70;90.30;;;;;;5139984;27;20043;-61
2022/09/06 12:45:49;;;;;;;9.65;6.00;;;26.60;90.30;;;;;;5138404;27;20061;-62
2022/09/06 12:48:30;;;;;;;9.35;4.95;;;26.50;90.50;;;;;;5131775;27;20043;-66
2022/09/06 12:51:08;;;;;;;10.98;5.43;;;26.50;90.60;;;;;;5097313;27;20066;-62
2022/09/06 12:53:34;;;;;;;7.47;5.25;;;26.50;90.60;;;;;;5139445;27;20043;-63
2022/09/06 12:56:18;;;;;;;9.57;5.70;;;26.50;90.50;;;;;;5141069;27;20042;-62
2022/09/06 12:58:43;;;;;;;9.60;5.40;;;26.60;90.50;;;;;;5126692;27;20445;-62
2022/09/06 13:01:31;;;;;;;10.60;5.97;;;26.60;90.60;;;;;;5123697;27;20095;-61
2022/09/06 13:04:08;;;;;;;14.02;6.20;;;26.70;90.50;;;;;;5123788;27;20043;-62
2022/09/06 13:06:40;;;;;;;13.07;5.40;;;26.70;90.70;;;;;;5139439;27;20066;-63
2022/09/06 13:09:09;;;;;;;7.90;5.85;;;26.80;90.60;;;;;;5136439;27;20062;-62
2022/09/06 13:11:38;;;;;;;8.32;5.18;;;26.90;90.50;;;;;;5134156;27;20561;-62
2022/09/06 13:14:31;;;;;;;9.90;5.90;;;27.00;90.40;;;;;;5122297;27;20538;-61